aviador You're here:

KART Decoded Metar

WATERTOWN in NY, USA
Report Time2017-11-21 05:56:00
UTC Time2017-11-21 06:07:03
Flight Rules vfr VFR
Wind170° at 08 kt
W.Decomp.*RWY 25: 3.0 kt HW 7.4 kt LCW
RWY 10: 1.1 kt HW 7.9 kt RCW
W.Rank170° ranks 6
Current wind is above 170° avg. (6.9)
Visibility9999 m
Phenomena:N/A
Clouds:N/A
Expected CloudBase > 2,000 ft AGL from Temp-Dew spread
CeilingNone
Temp03°C (ISA -11)
Dew Point-2°C (70% RH)
AAT-2.1°C
QNH1012 hPa
Density Alt-942 ft
Elevation328 ft
Report Wrong Elevation
Raw Report
METAR KART 210556Z AUTO 17008KT 10SM CLR 03/M02 A2988 RMK AO2 SLP121
T00281022 10033 21006 57013=

Extra information for KART:More info

Metar Taf Metar & Taf Last 4 Metars F.Rules Stats Wind Profile Meteogram Temp Stats Airport Information Weather charts Add Link Nearby VenuesMetar ALERT Operation Metar Decoded Social comments

AIRNAV info for KART